sensor_id;sensor_type;location;lat;lon;timestamp;temperature;humidity
63051;SHT30;49136;47.416;19.402;2022-09-09T00:04:30;18.12;95.14
63051;SHT30;49136;47.416;19.402;2022-09-09T00:07:22;18.02;94.98
63051;SHT30;49136;47.416;19.402;2022-09-09T00:10:39;18.02;95.06
63051;SHT30;49136;47.416;19.402;2022-09-09T00:15:18;17.96;95.21
63051;SHT30;49136;47.416;19.402;2022-09-09T00:17:58;17.89;95.21
63051;SHT30;49136;47.416;19.402;2022-09-09T00:23:34;17.67;95.35
63051;SHT30;49136;47.416;19.402;2022-09-09T00:28:34;17.64;95.48
63051;SHT30;49136;47.416;19.402;2022-09-09T00:31:11;17.66;95.64
63051;SHT30;49136;47.416;19.402;2022-09-09T00:33:37;17.66;95.71
63051;SHT30;49136;47.416;19.402;2022-09-09T00:36:12;17.61;95.73
63051;SHT30;49136;47.416;19.402;2022-09-09T00:38:50;17.53;95.72
63051;SHT30;49136;47.416;19.402;2022-09-09T00:44:33;17.39;95.84
63051;SHT30;49136;47.416;19.402;2022-09-09T00:47:12;17.40;95.91
63051;SHT30;49136;47.416;19.402;2022-09-09T00:54:51;17.23;96.00
63051;SHT30;49136;47.416;19.402;2022-09-09T00:57:36;17.25;95.98
63051;SHT30;49136;47.416;19.402;2022-09-09T01:05:56;17.02;95.99
63051;SHT30;49136;47.416;19.402;2022-09-09T01:11:04;16.92;96.06
63051;SHT30;49136;47.416;19.402;2022-09-09T01:13:32;16.87;96.03
63051;SHT30;49136;47.416;19.402;2022-09-09T01:16:00;16.84;95.98
63051;SHT30;49136;47.416;19.402;2022-09-09T01:18:49;16.83;96.00
63051;SHT30;49136;47.416;19.402;2022-09-09T01:21:32;16.83;96.04
63051;SHT30;49136;47.416;19.402;2022-09-09T01:26:48;16.78;96.11
63051;SHT30;49136;47.416;19.402;2022-09-09T01:29:17;16.77;96.17
63051;SHT30;49136;47.416;19.402;2022-09-09T01:34:23;16.64;96.13
63051;SHT30;49136;47.416;19.402;2022-09-09T01:36:57;16.64;96.19
63051;SHT30;49136;47.416;19.402;2022-09-09T01:39:24;16.57;96.23
63051;SHT30;49136;47.416;19.402;2022-09-09T01:41:51;16.53;96.22
63051;SHT30;49136;47.416;19.402;2022-09-09T01:44:17;16.52;96.29
63051;SHT30;49136;47.416;19.402;2022-09-09T01:46:44;16.49;96.26
63051;SHT30;49136;47.416;19.402;2022-09-09T01:49:09;16.41;96.29
63051;SHT30;49136;47.416;19.402;2022-09-09T01:51:37;16.46;96.29
63051;SHT30;49136;47.416;19.402;2022-09-09T01:54:03;16.49;96.38
63051;SHT30;49136;47.416;19.402;2022-09-09T02:02:13;16.45;96.46
63051;SHT30;49136;47.416;19.402;2022-09-09T02:04:43;16.45;96.47
63051;SHT30;49136;47.416;19.402;2022-09-09T02:07:30;16.45;96.53
63051;SHT30;49136;47.416;19.402;2022-09-09T02:10:08;16.41;96.52
63051;SHT30;49136;47.416;19.402;2022-09-09T02:12:35;16.36;96.56
63051;SHT30;49136;47.416;19.402;2022-09-09T02:15:11;16.32;96.60
63051;SHT30;49136;47.416;19.402;2022-09-09T02:17:41;16.26;96.60
63051;SHT30;49136;47.416;19.402;2022-09-09T02:20:11;16.22;96.60
63051;SHT30;49136;47.416;19.402;2022-09-09T02:22:39;16.22;96.64
63051;SHT30;49136;47.416;19.402;2022-09-09T02:25:10;16.25;96.70
63051;SHT30;49136;47.416;19.402;2022-09-09T02:27:37;16.19;96.69
63051;SHT30;49136;47.416;19.402;2022-09-09T02:30:04;16.21;96.71
63051;SHT30;49136;47.416;19.402;2022-09-09T02:32:32;16.24;96.76
63051;SHT30;49136;47.416;19.402;2022-09-09T02:35:03;16.24;96.70
63051;SHT30;49136;47.416;19.402;2022-09-09T02:37:38;16.25;96.76
63051;SHT30;49136;47.416;19.402;2022-09-09T02:40:05;16.28;96.79
63051;SHT30;49136;47.416;19.402;2022-09-09T02:42:31;16.19;96.81
63051;SHT30;49136;47.416;19.402;2022-09-09T02:44:57;16.19;96.82
63051;SHT30;49136;47.416;19.402;2022-09-09T02:58:22;16.10;96.79
63051;SHT30;49136;47.416;19.402;2022-09-09T03:00:49;16.12;96.84
63051;SHT30;49136;47.416;19.402;2022-09-09T03:03:16;16.04;96.81
63051;SHT30;49136;47.416;19.402;2022-09-09T03:05:43;16.01;96.81
63051;SHT30;49136;47.416;19.402;2022-09-09T03:08:09;16.02;96.81
63051;SHT30;49136;47.416;19.402;2022-09-09T03:10:35;16.01;96.86
63051;SHT30;49136;47.416;19.402;2022-09-09T03:13:02;16.00;96.86
63051;SHT30;49136;47.416;19.402;2022-09-09T03:15:31;16.00;96.91
63051;SHT30;49136;47.416;19.402;2022-09-09T03:17:57;15.96;96.86
63051;SHT30;49136;47.416;19.402;2022-09-09T03:20:32;15.98;96.87
63051;SHT30;49136;47.416;19.402;2022-09-09T03:22:59;15.96;96.91
63051;SHT30;49136;47.416;19.402;2022-09-09T03:25:25;15.97;97.00
63051;SHT30;49136;47.416;19.402;2022-09-09T03:27:52;15.94;96.92
63051;SHT30;49136;47.416;19.402;2022-09-09T03:30:20;15.91;96.95
63051;SHT30;49136;47.416;19.402;2022-09-09T03:32:46;15.89;96.92
63051;SHT30;49136;47.416;19.402;2022-09-09T03:35:11;15.87;97.06
63051;SHT30;49136;47.416;19.402;2022-09-09T03:37:37;15.87;97.19
63051;SHT30;49136;47.416;19.402;2022-09-09T03:40:04;15.91;97.19
63051;SHT30;49136;47.416;19.402;2022-09-09T03:42:29;15.86;97.14
63051;SHT30;49136;47.416;19.402;2022-09-09T03:44:56;15.84;97.10
63051;SHT30;49136;47.416;19.402;2022-09-09T03:47:23;15.83;97.10
63051;SHT30;49136;47.416;19.402;2022-09-09T03:49:48;15.83;97.09
63051;SHT30;49136;47.416;19.402;2022-09-09T03:52:14;15.83;97.09
63051;SHT30;49136;47.416;19.402;2022-09-09T03:54:40;15.77;97.08
63051;SHT30;49136;47.416;19.402;2022-09-09T03:57:08;15.74;97.12
63051;SHT30;49136;47.416;19.402;2022-09-09T03:59:33;15.71;97.14
63051;SHT30;49136;47.416;19.402;2022-09-09T04:02:00;15.69;97.17
63051;SHT30;49136;47.416;19.402;2022-09-09T04:04:25;15.67;97.19
63051;SHT30;49136;47.416;19.402;2022-09-09T04:06:52;15.67;97.19
63051;SHT30;49136;47.416;19.402;2022-09-09T04:09:17;15.63;97.23
63051;SHT30;49136;47.416;19.402;2022-09-09T04:11:42;15.62;97.21
63051;SHT30;49136;47.416;19.402;2022-09-09T04:14:08;15.65;97.22
63051;SHT30;49136;47.416;19.402;2022-09-09T04:16:34;15.62;97.29
63051;SHT30;49136;47.416;19.402;2022-09-09T04:19:02;15.60;97.28
63051;SHT30;49136;47.416;19.402;2022-09-09T04:21:29;15.63;97.29
63051;SHT30;49136;47.416;19.402;2022-09-09T04:23:55;15.59;97.27
63051;SHT30;49136;47.416;19.402;2022-09-09T04:26:20;15.58;97.28
63051;SHT30;49136;47.416;19.402;2022-09-09T04:28:45;15.53;97.28
63051;SHT30;49136;47.416;19.402;2022-09-09T04:31:16;15.56;97.25
63051;SHT30;49136;47.416;19.402;2022-09-09T04:33:43;15.62;97.28
63051;SHT30;49136;47.416;19.402;2022-09-09T04:36:08;15.65;97.22
63051;SHT30;49136;47.416;19.402;2022-09-09T04:38:33;15.66;97.18
63051;SHT30;49136;47.416;19.402;2022-09-09T04:40:59;15.71;97.21
63051;SHT30;49136;47.416;19.402;2022-09-09T04:43:24;15.77;97.20
63051;SHT30;49136;47.416;19.402;2022-09-09T04:45:51;15.80;97.14
63051;SHT30;49136;47.416;19.402;2022-09-09T04:48:17;15.83;97.14
63051;SHT30;49136;47.416;19.402;2022-09-09T04:50:42;15.89;97.08
63051;SHT30;49136;47.416;19.402;2022-09-09T04:53:08;15.96;97.04
63051;SHT30;49136;47.416;19.402;2022-09-09T04:55:34;16.04;96.99
63051;SHT30;49136;47.416;19.402;2022-09-09T04:58:07;16.08;96.97
63051;SHT30;49136;47.416;19.402;2022-09-09T05:00:34;16.14;96.91
63051;SHT30;49136;47.416;19.402;2022-09-09T05:03:05;16.18;96.83
63051;SHT30;49136;47.416;19.402;2022-09-09T05:05:31;16.24;96.76
63051;SHT30;49136;47.416;19.402;2022-09-09T05:08:06;16.22;96.57
63051;SHT30;49136;47.416;19.402;2022-09-09T05:10:33;16.22;96.42
63051;SHT30;49136;47.416;19.402;2022-09-09T05:12:59;16.33;96.34
63051;SHT30;49136;47.416;19.402;2022-09-09T05:15:25;16.41;96.16
63051;SHT30;49136;47.416;19.402;2022-09-09T05:17:50;16.46;96.11
63051;SHT30;49136;47.416;19.402;2022-09-09T05:20:17;16.53;95.98
63051;SHT30;49136;47.416;19.402;2022-09-09T05:22:43;16.53;95.88
63051;SHT30;49136;47.416;19.402;2022-09-09T05:25:09;16.49;95.59
63051;SHT30;49136;47.416;19.402;2022-09-09T05:27:34;16.57;95.52
63051;SHT30;49136;47.416;19.402;2022-09-09T05:29:59;16.64;95.37
63051;SHT30;49136;47.416;19.402;2022-09-09T05:32:25;16.73;95.29
63051;SHT30;49136;47.416;19.402;2022-09-09T05:34:51;16.84;95.14
63051;SHT30;49136;47.416;19.402;2022-09-09T05:37:17;17.00;95.08
63051;SHT30;49136;47.416;19.402;2022-09-09T05:39:43;17.15;95.11
63051;SHT30;49136;47.416;19.402;2022-09-09T05:42:09;17.28;94.91
63051;SHT30;49136;47.416;19.402;2022-09-09T05:44:34;17.35;94.86
63051;SHT30;49136;47.416;19.402;2022-09-09T05:46:59;17.51;94.66
63051;SHT30;49136;47.416;19.402;2022-09-09T05:49:25;17.63;94.46
63051;SHT30;49136;47.416;19.402;2022-09-09T05:51:50;17.82;94.22
63051;SHT30;49136;47.416;19.402;2022-09-09T05:54:16;18.01;94.10
63051;SHT30;49136;47.416;19.402;2022-09-09T05:56:42;18.10;93.96
63051;SHT30;49136;47.416;19.402;2022-09-09T05:59:07;18.36;93.70
63051;SHT30;49136;47.416;19.402;2022-09-09T06:01:35;18.58;93.57
63051;SHT30;49136;47.416;19.402;2022-09-09T06:04:02;18.81;93.51
63051;SHT30;49136;47.416;19.402;2022-09-09T06:06:31;19.05;93.09
63051;SHT30;49136;47.416;19.402;2022-09-09T06:09:03;19.27;92.59
63051;SHT30;49136;47.416;19.402;2022-09-09T06:11:31;19.40;92.11
63051;SHT30;49136;47.416;19.402;2022-09-09T06:13:57;19.76;92.23
63051;SHT30;49136;47.416;19.402;2022-09-09T06:16:25;19.99;91.50
63051;SHT30;49136;47.416;19.402;2022-09-09T06:18:52;20.17;91.02
63051;SHT30;49136;47.416;19.402;2022-09-09T06:21:21;20.37;89.70
63051;SHT30;49136;47.416;19.402;2022-09-09T06:23:47;20.47;88.95
63051;SHT30;49136;47.416;19.402;2022-09-09T06:26:15;20.51;89.21
63051;SHT30;49136;47.416;19.402;2022-09-09T06:28:42;20.71;89.43
63051;SHT30;49136;47.416;19.402;2022-09-09T06:31:11;20.64;88.69
63051;SHT30;49136;47.416;19.402;2022-09-09T06:33:38;20.62;89.49
63051;SHT30;49136;47.416;19.402;2022-09-09T06:36:11;20.65;90.22
63051;SHT30;49136;47.416;19.402;2022-09-09T06:38:37;20.49;89.12
63051;SHT30;49136;47.416;19.402;2022-09-09T06:41:02;20.62;89.36
63051;SHT30;49136;47.416;19.402;2022-09-09T06:43:28;20.58;89.13
63051;SHT30;49136;47.416;19.402;2022-09-09T06:46:02;20.35;89.73
63051;SHT30;49136;47.416;19.402;2022-09-09T06:48:27;20.17;89.91
63051;SHT30;49136;47.416;19.402;2022-09-09T06:51:01;20.10;90.15
63051;SHT30;49136;47.416;19.402;2022-09-09T06:53:26;20.18;90.27
63051;SHT30;49136;47.416;19.402;2022-09-09T06:55:52;20.35;90.03
63051;SHT30;49136;47.416;19.402;2022-09-09T06:58:18;20.56;89.35
63051;SHT30;49136;47.416;19.402;2022-09-09T07:00:44;20.71;89.47
63051;SHT30;49136;47.416;19.402;2022-09-09T07:03:10;21.14;88.72
63051;SHT30;49136;47.416;19.402;2022-09-09T07:05:35;21.27;88.11
63051;SHT30;49136;47.416;19.402;2022-09-09T07:08:01;21.42;87.96
63051;SHT30;49136;47.416;19.402;2022-09-09T07:10:27;21.37;87.52
63051;SHT30;49136;47.416;19.402;2022-09-09T07:12:52;21.25;87.60
63051;SHT30;49136;47.416;19.402;2022-09-09T07:15:18;21.25;88.22
63051;SHT30;49136;47.416;19.402;2022-09-09T07:17:45;21.41;87.51
63051;SHT30;49136;47.416;19.402;2022-09-09T07:20:10;21.72;86.94
63051;SHT30;49136;47.416;19.402;2022-09-09T07:22:36;22.00;86.07
63051;SHT30;49136;47.416;19.402;2022-09-09T07:25:02;22.38;85.26
63051;SHT30;49136;47.416;19.402;2022-09-09T07:27:28;22.69;83.38
63051;SHT30;49136;47.416;19.402;2022-09-09T07:29:53;22.73;82.04
63051;SHT30;49136;47.416;19.402;2022-09-09T07:32:19;22.69;83.00
63051;SHT30;49136;47.416;19.402;2022-09-09T07:34:45;22.42;83.60
63051;SHT30;49136;47.416;19.402;2022-09-09T07:37:11;21.87;85.02
63051;SHT30;49136;47.416;19.402;2022-09-09T07:39:38;21.46;85.98
63051;SHT30;49136;47.416;19.402;2022-09-09T07:42:04;21.41;86.18
63051;SHT30;49136;47.416;19.402;2022-09-09T07:44:30;21.83;85.82
63051;SHT30;49136;47.416;19.402;2022-09-09T07:46:57;22.01;85.00
63051;SHT30;49136;47.416;19.402;2022-09-09T07:49:22;22.05;84.71
63051;SHT30;49136;47.416;19.402;2022-09-09T07:51:48;22.10;82.94
63051;SHT30;49136;47.416;19.402;2022-09-09T07:54:16;22.04;83.05
63051;SHT30;49136;47.416;19.402;2022-09-09T07:56:42;22.20;83.13
63051;SHT30;49136;47.416;19.402;2022-09-09T07:59:08;22.25;82.91
63051;SHT30;49136;47.416;19.402;2022-09-09T08:01:40;22.25;82.00
63051;SHT30;49136;47.416;19.402;2022-09-09T08:04:08;22.28;82.30
63051;SHT30;49136;47.416;19.402;2022-09-09T08:06:39;22.31;81.49
63051;SHT30;49136;47.416;19.402;2022-09-09T08:09:06;22.21;82.21
63051;SHT30;49136;47.416;19.402;2022-09-09T08:11:32;22.29;81.61
63051;SHT30;49136;47.416;19.402;2022-09-09T08:13:58;22.36;80.00
63051;SHT30;49136;47.416;19.402;2022-09-09T08:16:27;22.41;80.87
63051;SHT30;49136;47.416;19.402;2022-09-09T08:18:53;22.49;80.69
63051;SHT30;49136;47.416;19.402;2022-09-09T08:21:22;22.57;81.83
63051;SHT30;49136;47.416;19.402;2022-09-09T08:23:51;22.69;81.64
63051;SHT30;49136;47.416;19.402;2022-09-09T08:26:31;22.56;81.31
63051;SHT30;49136;47.416;19.402;2022-09-09T08:28:58;22.63;78.51
63051;SHT30;49136;47.416;19.402;2022-09-09T08:31:32;22.67;77.22
63051;SHT30;49136;47.416;19.402;2022-09-09T08:33:59;22.97;80.23
63051;SHT30;49136;47.416;19.402;2022-09-09T08:36:26;22.93;79.58
63051;SHT30;49136;47.416;19.402;2022-09-09T08:38:55;22.97;78.50
63051;SHT30;49136;47.416;19.402;2022-09-09T08:44:05;23.08;75.63
63051;SHT30;49136;47.416;19.402;2022-09-09T08:46:42;23.16;75.68
63051;SHT30;49136;47.416;19.402;2022-09-09T08:54:53;23.28;74.31
63051;SHT30;49136;47.416;19.402;2022-09-09T08:57:26;23.64;77.01
63051;SHT30;49136;47.416;19.402;2022-09-09T08:59:54;23.81;76.42
63051;SHT30;49136;47.416;19.402;2022-09-09T09:02:32;23.85;76.29
63051;SHT30;49136;47.416;19.402;2022-09-09T09:12:46;24.21;74.96
63051;SHT30;49136;47.416;19.402;2022-09-09T09:15:30;24.09;70.89
63051;SHT30;49136;47.416;19.402;2022-09-09T09:17:56;24.21;74.15
63051;SHT30;49136;47.416;19.402;2022-09-09T09:20:34;24.44;76.62
63051;SHT30;49136;47.416;19.402;2022-09-09T09:23:04;24.49;74.34
63051;SHT30;49136;47.416;19.402;2022-09-09T09:25:35;24.60;74.36
63051;SHT30;49136;47.416;19.402;2022-09-09T09:30:56;24.84;72.42
63051;SHT30;49136;47.416;19.402;2022-09-09T09:33:51;24.66;69.74
63051;SHT30;49136;47.416;19.402;2022-09-09T09:36:19;24.91;72.03
63051;SHT30;49136;47.416;19.402;2022-09-09T09:38:56;25.09;70.18
63051;SHT30;49136;47.416;19.402;2022-09-09T09:41:30;24.94;69.19
63051;SHT30;49136;47.416;19.402;2022-09-09T09:43:56;25.23;69.38
63051;SHT30;49136;47.416;19.402;2022-09-09T09:46:23;25.16;68.94
63051;SHT30;49136;47.416;19.402;2022-09-09T09:49:04;25.32;68.42
63051;SHT30;49136;47.416;19.402;2022-09-09T09:51:31;25.30;68.32
63051;SHT30;49136;47.416;19.402;2022-09-09T09:54:30;24.98;63.94
63051;SHT30;49136;47.416;19.402;2022-09-09T09:56:58;25.06;65.93
63051;SHT30;49136;47.416;19.402;2022-09-09T09:59:36;25.29;65.39
63051;SHT30;49136;47.416;19.402;2022-09-09T10:02:22;25.26;63.15
63051;SHT30;49136;47.416;19.402;2022-09-09T10:05:04;25.40;66.85
63051;SHT30;49136;47.416;19.402;2022-09-09T10:07:29;25.64;68.38
63051;SHT30;49136;47.416;19.402;2022-09-09T10:09:56;25.68;65.65
63051;SHT30;49136;47.416;19.402;2022-09-09T10:15:15;25.67;66.20
63051;SHT30;49136;47.416;19.402;2022-09-09T10:26:11;26.43;60.93
63051;SHT30;49136;47.416;19.402;2022-09-09T10:31:41;26.26;59.91
63051;SHT30;49136;47.416;19.402;2022-09-09T10:34:17;26.23;58.33
63051;SHT30;49136;47.416;19.402;2022-09-09T10:36:47;26.16;57.73
63051;SHT30;49136;47.416;19.402;2022-09-09T10:39:37;25.75;56.18
63051;SHT30;49136;47.416;19.402;2022-09-09T10:42:26;26.36;61.80
63051;SHT30;49136;47.416;19.402;2022-09-09T10:45:04;26.48;61.61
63051;SHT30;49136;47.416;19.402;2022-09-09T10:47:57;26.30;61.79
63051;SHT30;49136;47.416;19.402;2022-09-09T10:50:40;26.55;60.39
63051;SHT30;49136;47.416;19.402;2022-09-09T10:55:52;26.30;57.97
63051;SHT30;49136;47.416;19.402;2022-09-09T10:58:31;26.26;54.63
63051;SHT30;49136;47.416;19.402;2022-09-09T11:01:06;26.57;57.01
63051;SHT30;49136;47.416;19.402;2022-09-09T11:03:38;27.03;60.71
63051;SHT30;49136;47.416;19.402;2022-09-09T11:06:06;27.33;58.37
63051;SHT30;49136;47.416;19.402;2022-09-09T11:08:38;27.41;54.07
63051;SHT30;49136;47.416;19.402;2022-09-09T11:16:33;27.48;57.09
63051;SHT30;49136;47.416;19.402;2022-09-09T11:19:26;27.44;56.06
63051;SHT30;49136;47.416;19.402;2022-09-09T11:21:53;27.48;52.05
63051;SHT30;49136;47.416;19.402;2022-09-09T11:24:25;27.23;53.11
63051;SHT30;49136;47.416;19.402;2022-09-09T11:27:10;27.38;54.32
63051;SHT30;49136;47.416;19.402;2022-09-09T11:32:45;27.62;52.73
63051;SHT30;49136;47.416;19.402;2022-09-09T11:37:57;27.34;51.89
63051;SHT30;49136;47.416;19.402;2022-09-09T11:40:28;27.48;52.25
63051;SHT30;49136;47.416;19.402;2022-09-09T11:43:31;27.93;56.56
63051;SHT30;49136;47.416;19.402;2022-09-09T11:45:58;27.93;49.03
63051;SHT30;49136;47.416;19.402;2022-09-09T11:48:41;27.81;51.63
63051;SHT30;49136;47.416;19.402;2022-09-09T11:51:27;27.51;51.45
63051;SHT30;49136;47.416;19.402;2022-09-09T11:53:58;27.75;54.08
63051;SHT30;49136;47.416;19.402;2022-09-09T11:59:19;27.33;52.18
63051;SHT30;49136;47.416;19.402;2022-09-09T12:01:50;27.23;50.82
63051;SHT30;49136;47.416;19.402;2022-09-09T12:04:27;27.07;50.91
63051;SHT30;49136;47.416;19.402;2022-09-09T12:09:33;27.29;53.17
63051;SHT30;49136;47.416;19.402;2022-09-09T12:12:07;27.54;56.72
63051;SHT30;49136;47.416;19.402;2022-09-09T12:14:37;27.69;54.88
63051;SHT30;49136;47.416;19.402;2022-09-09T12:17:17;27.89;51.33
63051;SHT30;49136;47.416;19.402;2022-09-09T12:19:44;27.90;54.42
63051;SHT30;49136;47.416;19.402;2022-09-09T12:24:55;28.10;52.78
63051;SHT30;49136;47.416;19.402;2022-09-09T12:27:28;28.16;51.23
63051;SHT30;49136;47.416;19.402;2022-09-09T12:32:28;28.55;50.01
63051;SHT30;49136;47.416;19.402;2022-09-09T12:34:55;28.72;48.99
63051;SHT30;49136;47.416;19.402;2022-09-09T12:39:58;29.41;47.37
63051;SHT30;49136;47.416;19.402;2022-09-09T12:42:24;29.79;46.60
63051;SHT30;49136;47.416;19.402;2022-09-09T12:44:54;28.76;49.23
63051;SHT30;49136;47.416;19.402;2022-09-09T12:47:20;28.71;48.01
63051;SHT30;49136;47.416;19.402;2022-09-09T12:49:46;28.00;48.18
63051;SHT30;49136;47.416;19.402;2022-09-09T12:52:17;28.25;53.39
63051;SHT30;49136;47.416;19.402;2022-09-09T12:54:45;28.62;49.00
63051;SHT30;49136;47.416;19.402;2022-09-09T12:57:16;29.06;47.78
63051;SHT30;49136;47.416;19.402;2022-09-09T12:59:42;29.56;50.03
63051;SHT30;49136;47.416;19.402;2022-09-09T13:02:23;30.10;48.32
63051;SHT30;49136;47.416;19.402;2022-09-09T13:04:49;30.15;46.35
63051;SHT30;49136;47.416;19.402;2022-09-09T13:07:16;30.14;48.39
63051;SHT30;49136;47.416;19.402;2022-09-09T13:09:41;30.20;45.77
63051;SHT30;49136;47.416;19.402;2022-09-09T13:12:09;30.25;46.87
63051;SHT30;49136;47.416;19.402;2022-09-09T13:14:38;30.04;45.80
63051;SHT30;49136;47.416;19.402;2022-09-09T13:17:04;29.65;47.34
63051;SHT30;49136;47.416;19.402;2022-09-09T13:19:30;29.21;43.75
63051;SHT30;49136;47.416;19.402;2022-09-09T13:21:57;29.34;47.02
63051;SHT30;49136;47.416;19.402;2022-09-09T13:24:33;29.08;45.40
63051;SHT30;49136;47.416;19.402;2022-09-09T13:27:00;29.18;46.75
63051;SHT30;49136;47.416;19.402;2022-09-09T13:29:29;29.17;44.12
63051;SHT30;49136;47.416;19.402;2022-09-09T13:32:05;29.35;45.29
63051;SHT30;49136;47.416;19.402;2022-09-09T13:34:32;29.63;47.07
63051;SHT30;49136;47.416;19.402;2022-09-09T13:37:01;29.25;45.04
63051;SHT30;49136;47.416;19.402;2022-09-09T13:39:27;29.20;46.35
63051;SHT30;49136;47.416;19.402;2022-09-09T13:41:52;28.93;44.02
63051;SHT30;49136;47.416;19.402;2022-09-09T13:44:20;29.00;45.26
63051;SHT30;49136;47.416;19.402;2022-09-09T13:46:48;29.07;46.28
63051;SHT30;49136;47.416;19.402;2022-09-09T13:49:24;29.14;47.74
63051;SHT30;49136;47.416;19.402;2022-09-09T13:52:02;28.59;48.18
63051;SHT30;49136;47.416;19.402;2022-09-09T13:54:27;28.21;47.98
63051;SHT30;49136;47.416;19.402;2022-09-09T13:56:52;28.11;49.76
63051;SHT30;49136;47.416;19.402;2022-09-09T13:59:19;27.78;46.36
63051;SHT30;49136;47.416;19.402;2022-09-09T14:01:45;28.06;47.34
63051;SHT30;49136;47.416;19.402;2022-09-09T14:04:10;28.03;47.71
63051;SHT30;49136;47.416;19.402;2022-09-09T14:06:35;28.33;44.25
63051;SHT30;49136;47.416;19.402;2022-09-09T14:09:09;28.51;46.17
63051;SHT30;49136;47.416;19.402;2022-09-09T14:11:34;28.63;46.39
63051;SHT30;49136;47.416;19.402;2022-09-09T14:14:00;28.73;45.64
63051;SHT30;49136;47.416;19.402;2022-09-09T14:16:25;28.76;47.33
63051;SHT30;49136;47.416;19.402;2022-09-09T14:18:52;28.47;47.92
63051;SHT30;49136;47.416;19.402;2022-09-09T14:21:18;27.52;49.30
63051;SHT30;49136;47.416;19.402;2022-09-09T14:23:43;27.43;49.54
63051;SHT30;49136;47.416;19.402;2022-09-09T14:26:08;27.36;51.30
63051;SHT30;49136;47.416;19.402;2022-09-09T14:28:35;27.23;50.15
63051;SHT30;49136;47.416;19.402;2022-09-09T14:31:01;27.37;52.58
63051;SHT30;49136;47.416;19.402;2022-09-09T14:33:26;27.37;51.76
63051;SHT30;49136;47.416;19.402;2022-09-09T14:35:57;27.51;50.87
63051;SHT30;49136;47.416;19.402;2022-09-09T14:38:23;27.89;50.00
63051;SHT30;49136;47.416;19.402;2022-09-09T14:40:48;28.03;49.80
63051;SHT30;49136;47.416;19.402;2022-09-09T14:43:13;27.81;52.08
63051;SHT30;49136;47.416;19.402;2022-09-09T14:45:39;27.72;52.26
63051;SHT30;49136;47.416;19.402;2022-09-09T14:48:05;27.54;52.61
63051;SHT30;49136;47.416;19.402;2022-09-09T14:50:30;27.43;52.44
63051;SHT30;49136;47.416;19.402;2022-09-09T14:52:55;27.26;55.33
63051;SHT30;49136;47.416;19.402;2022-09-09T14:55:21;26.82;52.90
63051;SHT30;49136;47.416;19.402;2022-09-09T14:57:46;26.69;54.87
63051;SHT30;49136;47.416;19.402;2022-09-09T15:00:11;26.40;55.57
63051;SHT30;49136;47.416;19.402;2022-09-09T15:02:38;26.39;55.13
63051;SHT30;49136;47.416;19.402;2022-09-09T15:05:04;26.27;53.40
63051;SHT30;49136;47.416;19.402;2022-09-09T15:07:29;26.29;55.11
63051;SHT30;49136;47.416;19.402;2022-09-09T15:09:57;26.30;55.80
63051;SHT30;49136;47.416;19.402;2022-09-09T15:12:22;26.40;56.75
63051;SHT30;49136;47.416;19.402;2022-09-09T15:14:48;26.41;55.63
63051;SHT30;49136;47.416;19.402;2022-09-09T15:17:15;26.29;58.07
63051;SHT30;49136;47.416;19.402;2022-09-09T15:19:40;26.12;55.56
63051;SHT30;49136;47.416;19.402;2022-09-09T15:22:07;26.02;56.80
63051;SHT30;49136;47.416;19.402;2022-09-09T15:24:32;25.93;56.99
63051;SHT30;49136;47.416;19.402;2022-09-09T15:26:58;25.86;59.35
63051;SHT30;49136;47.416;19.402;2022-09-09T15:29:24;25.70;58.47
63051;SHT30;49136;47.416;19.402;2022-09-09T15:31:49;25.67;55.77
63051;SHT30;49136;47.416;19.402;2022-09-09T15:34:14;25.57;56.06
63051;SHT30;49136;47.416;19.402;2022-09-09T15:36:41;25.61;57.00
63051;SHT30;49136;47.416;19.402;2022-09-09T15:39:08;25.64;59.51
63051;SHT30;49136;47.416;19.402;2022-09-09T15:41:34;25.85;55.66
63051;SHT30;49136;47.416;19.402;2022-09-09T15:44:00;25.84;53.80
63051;SHT30;49136;47.416;19.402;2022-09-09T15:46:38;25.82;55.92
63051;SHT30;49136;47.416;19.402;2022-09-09T15:49:06;25.75;57.53
63051;SHT30;49136;47.416;19.402;2022-09-09T15:51:34;25.51;58.86
63051;SHT30;49136;47.416;19.402;2022-09-09T15:53:59;25.23;60.26
63051;SHT30;49136;47.416;19.402;2022-09-09T15:56:25;25.11;61.28
63051;SHT30;49136;47.416;19.402;2022-09-09T15:58:52;24.95;61.44
63051;SHT30;49136;47.416;19.402;2022-09-09T16:01:17;24.80;61.90
63051;SHT30;49136;47.416;19.402;2022-09-09T16:03:44;24.67;62.86
63051;SHT30;49136;47.416;19.402;2022-09-09T16:06:16;24.49;64.36
63051;SHT30;49136;47.416;19.402;2022-09-09T16:08:43;24.36;64.43
63051;SHT30;49136;47.416;19.402;2022-09-09T16:11:13;24.16;65.33
63051;SHT30;49136;47.416;19.402;2022-09-09T16:13:40;24.09;67.76
63051;SHT30;49136;47.416;19.402;2022-09-09T16:16:06;23.93;66.80
63051;SHT30;49136;47.416;19.402;2022-09-09T16:18:35;23.87;69.53
63051;SHT30;49136;47.416;19.402;2022-09-09T16:21:01;23.75;69.54
63051;SHT30;49136;47.416;19.402;2022-09-09T16:23:26;23.73;70.71
63051;SHT30;49136;47.416;19.402;2022-09-09T16:25:54;23.64;69.12
63051;SHT30;49136;47.416;19.402;2022-09-09T16:28:20;23.71;67.00
63051;SHT30;49136;47.416;19.402;2022-09-09T16:30:45;23.63;69.08
63051;SHT30;49136;47.416;19.402;2022-09-09T16:33:11;23.57;69.91
63051;SHT30;49136;47.416;19.402;2022-09-09T16:35:36;23.46;68.18
63051;SHT30;49136;47.416;19.402;2022-09-09T16:38:03;23.43;69.70
63051;SHT30;49136;47.416;19.402;2022-09-09T16:40:29;23.35;70.36
63051;SHT30;49136;47.416;19.402;2022-09-09T16:42:55;23.30;70.21
63051;SHT30;49136;47.416;19.402;2022-09-09T16:45:20;23.23;71.39
63051;SHT30;49136;47.416;19.402;2022-09-09T16:47:47;23.11;71.64
63051;SHT30;49136;47.416;19.402;2022-09-09T16:50:13;22.93;74.42
63051;SHT30;49136;47.416;19.402;2022-09-09T16:52:38;22.73;75.23
63051;SHT30;49136;47.416;19.402;2022-09-09T16:55:04;22.69;74.44
63051;SHT30;49136;47.416;19.402;2022-09-09T16:57:30;22.74;74.53
63051;SHT30;49136;47.416;19.402;2022-09-09T16:59:55;22.67;73.44
63051;SHT30;49136;47.416;19.402;2022-09-09T17:02:24;22.56;75.61
63051;SHT30;49136;47.416;19.402;2022-09-09T17:04:49;22.41;74.81
63051;SHT30;49136;47.416;19.402;2022-09-09T17:07:14;22.35;75.39
63051;SHT30;49136;47.416;19.402;2022-09-09T17:09:40;22.22;78.17
63051;SHT30;49136;47.416;19.402;2022-09-09T17:12:05;22.14;77.78
63051;SHT30;49136;47.416;19.402;2022-09-09T17:14:31;21.96;78.84
63051;SHT30;49136;47.416;19.402;2022-09-09T17:16:57;21.87;79.14